To NAV CANADA Home Page Login to a new session Search on AWWS site Feedback and Comments Disclaimer Vers la page française équivalente Tips FAQ What's new on the site To the Forecasts and Observations / NOTAM section To "File a Flight Plan" website Publications and other links Update of the User's profile FIC Telephone Numbers My Weather Data Folder Route Weather Data Regional Weather Data Local Weather Data To the Forecasts and Observations / NOTAM section
Request Generated 02/23/2017 at 20:46:43 UTC . Weather information available at that time is displayed.

METAR/TAF

CAPE DORSET/NU    (show WxCam)

METAR CYTE 232000Z AUTO 28014G21KT 9SM CLR M22/M26 A2997 RMK SLP158=
METAR CYTE 231900Z AUTO 28017KT 9SM CLR M22/M25 A2996 RMK SLP153=
METAR CYTE 231800Z AUTO 27015G22KT 9SM CLR M22/M25 A2996 RMK SLP153=

TAF CYTE 231838Z 2319/2407 27012KT P6SM SKC TEMPO 2319/2407 5SM IC BR
RMK NXT FCST BY 240100Z=
Your time UTC time
Weather data provided by Environment Canada and NAV CANADA